AAL1050 KDCA-KBOS
Flight info
| Callsign | AAL1050 |
|---|---|
| Flight time | 1h 8m |
| Altitude | 35000 |
| Route | SOOKI6 SWANN BROSS Q419 JFK ROBUC3 |
| Aircraft | A321/M-SDE3FGHIRWY/LB1 |
Departure
| Time | 2026-05-06 01:10 |
|---|---|
| Airport | Ronald Reagan Washington National Airport (KDCA) |
Arrival
| Time | 2026-05-06 02:19 |
|---|---|
| Airport | Boston Logan International Airport (KBOS) |
| Time | Latitude | Longitude | Altitude | Speed | Heading |
|---|---|---|---|---|---|
| 2026-05-06 00:43 | 38.85556 | -77.04217 | 28 ft | 0 kts | 332° |
| 2026-05-06 00:54 | 38.85546 | -77.04210 | 27 ft | 3 kts | 340° |
| 2026-05-06 00:55 | 38.85527 | -77.04205 | 27 ft | 3 kts | 7° |
| 2026-05-06 00:55 | 38.85510 | -77.04212 | 27 ft | 3 kts | 48° |
| 2026-05-06 00:55 | 38.85502 | -77.04227 | 27 ft | 1 kts | 72° |
| 2026-05-06 00:55 | 38.85501 | -77.04233 | 27 ft | 0 kts | 72° |
| 2026-05-06 01:03 | 38.85503 | -77.04225 | 20 ft | 2 kts | 72° |
| 2026-05-06 01:03 | 38.85510 | -77.04196 | 27 ft | 5 kts | 72° |
| 2026-05-06 01:03 | 38.85523 | -77.04144 | 30 ft | 7 kts | 72° |
| 2026-05-06 01:04 | 38.85540 | -77.04077 | 29 ft | 9 kts | 72° |
| 2026-05-06 01:04 | 38.85569 | -77.04033 | 27 ft | 5 kts | 7° |
| 2026-05-06 01:04 | 38.85604 | -77.04038 | 28 ft | 5 kts | 355° |
| 2026-05-06 01:04 | 38.85643 | -77.04042 | 29 ft | 7 kts | 355° |
| 2026-05-06 01:05 | 38.85692 | -77.04047 | 29 ft | 7 kts | 355° |
| 2026-05-06 01:05 | 38.85706 | -77.04048 | 30 ft | 0 kts | 355° |
| 2026-05-06 01:06 | 38.85710 | -77.04048 | 30 ft | 1 kts | 355° |
| 2026-05-06 01:07 | 38.85730 | -77.04050 | 29 ft | 6 kts | 355° |
| 2026-05-06 01:07 | 38.85787 | -77.04056 | 28 ft | 10 kts | 355° |
| 2026-05-06 01:07 | 38.85866 | -77.04064 | 27 ft | 13 kts | 355° |
| 2026-05-06 01:07 | 38.85926 | -77.04036 | 26 ft | 10 kts | 66° |
| 2026-05-06 01:08 | 38.85966 | -77.03992 | 26 ft | 8 kts | 11° |
| 2026-05-06 01:08 | 38.86008 | -77.03980 | 29 ft | 2 kts | 14° |
| 2026-05-06 01:08 | 38.86017 | -77.03978 | 29 ft | 4 kts | 14° |
| 2026-05-06 01:08 | 38.86067 | -77.03948 | 24 ft | 10 kts | 40° |
| 2026-05-06 01:09 | 38.86070 | -77.03870 | 23 ft | 10 kts | 152° |
| 2026-05-06 01:09 | 38.86004 | -77.03861 | 25 ft | 11 kts | 175° |
| 2026-05-06 01:09 | 38.85735 | -77.03835 | 27 ft | 74 kts | 175° |
| 2026-05-06 01:09 | 38.85004 | -77.03761 | 26 ft | 134 kts | 175° |
| 2026-05-06 01:10 | 38.83944 | -77.03652 | 288 ft | 157 kts | 177° |
| 2026-05-06 01:10 | 38.82898 | -77.03509 | 1076 ft | 147 kts | 174° |
| 2026-05-06 01:10 | 38.81933 | -77.03268 | 1883 ft | 135 kts | 173° |
| 2026-05-06 01:10 | 38.81067 | -77.02913 | 2561 ft | 127 kts | 170° |
| 2026-05-06 01:11 | 38.80260 | -77.02443 | 3090 ft | 130 kts | 165° |
| 2026-05-06 01:11 | 38.79434 | -77.01837 | 3387 ft | 145 kts | 160° |
| 2026-05-06 01:11 | 38.78598 | -77.01094 | 3879 ft | 144 kts | 155° |
| 2026-05-06 01:11 | 38.77829 | -77.00253 | 4330 ft | 156 kts | 150° |
| 2026-05-06 01:12 | 38.77137 | -76.98883 | 4600 ft | 214 kts | 111° |
| 2026-05-06 01:12 | 38.77265 | -76.96856 | 4918 ft | 251 kts | 69° |
| 2026-05-06 01:12 | 38.78318 | -76.94950 | 5245 ft | 272 kts | 45° |
| 2026-05-06 01:12 | 38.79712 | -76.93269 | 5890 ft | 274 kts | 43° |
| 2026-05-06 01:13 | 38.81106 | -76.91624 | 6556 ft | 275 kts | 43° |
| 2026-05-06 01:13 | 38.82540 | -76.89931 | 7053 ft | 286 kts | 42° |
| 2026-05-06 01:13 | 38.83912 | -76.88017 | 7562 ft | 297 kts | 53° |
| 2026-05-06 01:13 | 38.85112 | -76.85802 | 8047 ft | 309 kts | 58° |
| 2026-05-06 01:14 | 38.87331 | -76.80979 | 9076 ft | 317 kts | 60° |
| 2026-05-06 01:14 | 38.88438 | -76.78519 | 9599 ft | 319 kts | 59° |
| 2026-05-06 01:14 | 38.89565 | -76.76068 | 10092 ft | 321 kts | 58° |
| 2026-05-06 01:15 | 38.90737 | -76.73579 | 10571 ft | 331 kts | 58° |
| 2026-05-06 01:15 | 38.91963 | -76.71026 | 11059 ft | 340 kts | 57° |
| 2026-05-06 01:15 | 38.93230 | -76.68417 | 11564 ft | 350 kts | 57° |
| 2026-05-06 01:15 | 38.94540 | -76.65731 | 12071 ft | 359 kts | 57° |
| 2026-05-06 01:16 | 38.95879 | -76.62983 | 12584 ft | 367 kts | 57° |
| 2026-05-06 01:16 | 38.97234 | -76.60192 | 13108 ft | 374 kts | 57° |
| 2026-05-06 01:16 | 38.98623 | -76.57320 | 13634 ft | 381 kts | 57° |
| 2026-05-06 01:16 | 39.00030 | -76.54405 | 14117 ft | 388 kts | 57° |
| 2026-05-06 01:17 | 39.01462 | -76.51433 | 14560 ft | 394 kts | 57° |
| 2026-05-06 01:17 | 39.02918 | -76.48407 | 15059 ft | 400 kts | 57° |
| 2026-05-06 01:17 | 39.04391 | -76.45340 | 15553 ft | 406 kts | 58° |
| 2026-05-06 01:17 | 39.05885 | -76.42229 | 16048 ft | 412 kts | 58° |
| 2026-05-06 01:18 | 39.07400 | -76.39079 | 16554 ft | 416 kts | 58° |
| 2026-05-06 01:18 | 39.08928 | -76.35894 | 17079 ft | 420 kts | 58° |
| 2026-05-06 01:18 | 39.10468 | -76.32679 | 17616 ft | 424 kts | 58° |
| 2026-05-06 01:18 | 39.12024 | -76.29432 | 18134 ft | 428 kts | 58° |
| 2026-05-06 01:19 | 39.13578 | -76.26147 | 18613 ft | 431 kts | 61° |
| 2026-05-06 01:19 | 39.14828 | -76.22620 | 19079 ft | 434 kts | 71° |
| 2026-05-06 01:19 | 39.15913 | -76.18981 | 19552 ft | 437 kts | 62° |
| 2026-05-06 01:19 | 39.17698 | -76.15817 | 20039 ft | 439 kts | 49° |
| 2026-05-06 01:20 | 39.19684 | -76.12822 | 20587 ft | 439 kts | 49° |
| 2026-05-06 01:20 | 39.21671 | -76.09832 | 21214 ft | 439 kts | 49° |
| 2026-05-06 01:20 | 39.23612 | -76.06866 | 21847 ft | 438 kts | 49° |
| 2026-05-06 01:20 | 39.25551 | -76.03840 | 22499 ft | 436 kts | 50° |
| 2026-05-06 01:21 | 39.27460 | -76.00810 | 23160 ft | 434 kts | 50° |
| 2026-05-06 01:21 | 39.29350 | -75.97781 | 23780 ft | 432 kts | 50° |
| 2026-05-06 01:21 | 39.31222 | -75.94769 | 24353 ft | 429 kts | 50° |
| 2026-05-06 01:21 | 39.33080 | -75.91781 | 24942 ft | 425 kts | 50° |
| 2026-05-06 01:22 | 39.34925 | -75.88818 | 25529 ft | 421 kts | 50° |
| 2026-05-06 01:22 | 39.36754 | -75.85893 | 26138 ft | 416 kts | 49° |
| 2026-05-06 01:22 | 39.38559 | -75.83007 | 26772 ft | 411 kts | 49° |
| 2026-05-06 01:22 | 39.40342 | -75.80155 | 27415 ft | 405 kts | 49° |
| 2026-05-06 01:23 | 39.42096 | -75.77348 | 28060 ft | 398 kts | 49° |
| 2026-05-06 01:23 | 39.43815 | -75.74589 | 28685 ft | 391 kts | 48° |
| 2026-05-06 01:23 | 39.45514 | -75.71862 | 29155 ft | 390 kts | 48° |
| 2026-05-06 01:23 | 39.47219 | -75.69126 | 29463 ft | 391 kts | 48° |
| 2026-05-06 01:24 | 39.48929 | -75.66381 | 29784 ft | 393 kts | 48° |
| 2026-05-06 01:24 | 39.50645 | -75.63620 | 30108 ft | 393 kts | 47° |
| 2026-05-06 01:24 | 39.52359 | -75.60860 | 30399 ft | 394 kts | 47° |
| 2026-05-06 01:24 | 39.54069 | -75.58104 | 30685 ft | 395 kts | 47° |
| 2026-05-06 01:25 | 39.55793 | -75.55324 | 30941 ft | 396 kts | 47° |
| 2026-05-06 01:25 | 39.57521 | -75.52535 | 31199 ft | 397 kts | 47° |
| 2026-05-06 01:25 | 39.59254 | -75.49733 | 31439 ft | 399 kts | 47° |
| 2026-05-06 01:25 | 39.60990 | -75.46922 | 31697 ft | 400 kts | 47° |
| 2026-05-06 01:26 | 39.62729 | -75.44108 | 31947 ft | 401 kts | 47° |
| 2026-05-06 01:26 | 39.64480 | -75.41272 | 32198 ft | 402 kts | 46° |
| 2026-05-06 01:26 | 39.66229 | -75.38433 | 32482 ft | 403 kts | 46° |
| 2026-05-06 01:26 | 39.67980 | -75.35588 | 32738 ft | 404 kts | 46° |
| 2026-05-06 01:27 | 39.69736 | -75.32735 | 32989 ft | 405 kts | 46° |
| 2026-05-06 01:27 | 39.71496 | -75.29871 | 33234 ft | 406 kts | 46° |
| 2026-05-06 01:27 | 39.73260 | -75.26997 | 33489 ft | 408 kts | 46° |
| 2026-05-06 01:27 | 39.75027 | -75.24118 | 33716 ft | 409 kts | 46° |
| 2026-05-06 01:28 | 39.76807 | -75.21213 | 33945 ft | 410 kts | 46° |
| 2026-05-06 01:28 | 39.78585 | -75.18305 | 34140 ft | 412 kts | 46° |
| 2026-05-06 01:28 | 39.80372 | -75.15384 | 34334 ft | 413 kts | 46° |
| 2026-05-06 01:28 | 39.82162 | -75.12462 | 34522 ft | 414 kts | 45° |
| 2026-05-06 01:29 | 39.83953 | -75.09537 | 34703 ft | 414 kts | 45° |
| 2026-05-06 01:29 | 39.85726 | -75.06637 | 34871 ft | 416 kts | 45° |
| 2026-05-06 01:29 | 39.89364 | -75.00671 | 34934 ft | 427 kts | 46° |
| 2026-05-06 01:30 | 39.93111 | -74.94514 | 34949 ft | 440 kts | 46° |
| 2026-05-06 01:30 | 39.96964 | -74.88165 | 34932 ft | 449 kts | 46° |
| 2026-05-06 01:31 | 39.98871 | -74.85035 | 34927 ft | 434 kts | 46° |
| 2026-05-06 01:31 | 40.00722 | -74.82017 | 34930 ft | 418 kts | 45° |
| 2026-05-06 01:31 | 40.03686 | -74.77150 | 34936 ft | 416 kts | 46° |
| 2026-05-06 01:32 | 40.07297 | -74.71104 | 34944 ft | 429 kts | 46° |
| 2026-05-06 01:32 | 40.11023 | -74.64874 | 34929 ft | 442 kts | 46° |
| 2026-05-06 01:33 | 40.14880 | -74.58454 | 34910 ft | 456 kts | 46° |
| 2026-05-06 01:33 | 40.18855 | -74.51841 | 34912 ft | 470 kts | 45° |
| 2026-05-06 01:34 | 40.23539 | -74.45975 | 34928 ft | 464 kts | 33° |
| 2026-05-06 01:34 | 40.28535 | -74.40652 | 34960 ft | 465 kts | 33° |
| 2026-05-06 01:35 | 40.33557 | -74.35290 | 34922 ft | 467 kts | 33° |
| 2026-05-06 01:35 | 40.38570 | -74.29920 | 34905 ft | 464 kts | 33° |
| 2026-05-06 01:36 | 40.43571 | -74.24557 | 34906 ft | 464 kts | 33° |
| 2026-05-06 01:36 | 40.48571 | -74.19175 | 34936 ft | 465 kts | 34° |
| 2026-05-06 01:37 | 40.53322 | -74.13380 | 34924 ft | 473 kts | 47° |
| 2026-05-06 01:37 | 40.56596 | -74.05856 | 34934 ft | 484 kts | 67° |
| 2026-05-06 01:38 | 40.58610 | -73.97307 | 34934 ft | 486 kts | 70° |
| 2026-05-06 01:38 | 40.60585 | -73.88795 | 34951 ft | 486 kts | 70° |
| 2026-05-06 01:39 | 40.62641 | -73.80401 | 34940 ft | 478 kts | 63° |
| 2026-05-06 01:39 | 40.64116 | -73.76549 | 34538 ft | 466 kts | 53° |
| 2026-05-06 01:39 | 40.65998 | -73.73146 | 33997 ft | 456 kts | 44° |
| 2026-05-06 01:40 | 40.68149 | -73.70055 | 33450 ft | 460 kts | 43° |
| 2026-05-06 01:40 | 40.70319 | -73.66932 | 32955 ft | 462 kts | 44° |
| 2026-05-06 01:40 | 40.72470 | -73.63799 | 32466 ft | 460 kts | 44° |
| 2026-05-06 01:40 | 40.74594 | -73.60676 | 31996 ft | 456 kts | 45° |
| 2026-05-06 01:41 | 40.76700 | -73.57564 | 31478 ft | 452 kts | 45° |
| 2026-05-06 01:41 | 40.78789 | -73.54475 | 30928 ft | 449 kts | 45° |
| 2026-05-06 01:41 | 40.80870 | -73.51403 | 30366 ft | 450 kts | 46° |
| 2026-05-06 01:41 | 40.82965 | -73.48322 | 29657 ft | 452 kts | 46° |
| 2026-05-06 01:42 | 40.85062 | -73.45240 | 28858 ft | 454 kts | 46° |
| 2026-05-06 01:42 | 40.87184 | -73.42122 | 28045 ft | 462 kts | 46° |
| 2026-05-06 01:42 | 40.89357 | -73.38926 | 27253 ft | 469 kts | 46° |
| 2026-05-06 01:42 | 40.91522 | -73.35727 | 26076 ft | 464 kts | 46° |
| 2026-05-06 01:43 | 40.93617 | -73.32617 | 25572 ft | 443 kts | 47° |
| 2026-05-06 01:43 | 40.95655 | -73.29586 | 25300 ft | 439 kts | 46° |
| 2026-05-06 01:43 | 40.97678 | -73.26582 | 25074 ft | 436 kts | 46° |
| 2026-05-06 01:43 | 40.99693 | -73.23596 | 24849 ft | 436 kts | 46° |
| 2026-05-06 01:44 | 41.01711 | -73.20603 | 24615 ft | 434 kts | 46° |
| 2026-05-06 01:44 | 41.03720 | -73.17617 | 24379 ft | 433 kts | 46° |
| 2026-05-06 01:44 | 41.05713 | -73.14652 | 24137 ft | 431 kts | 46° |
| 2026-05-06 01:44 | 41.07707 | -73.11686 | 23919 ft | 430 kts | 46° |
| 2026-05-06 01:45 | 41.09693 | -73.08733 | 23718 ft | 429 kts | 46° |
| 2026-05-06 01:45 | 41.11679 | -73.05778 | 23468 ft | 428 kts | 46° |
| 2026-05-06 01:45 | 41.13653 | -73.02837 | 23205 ft | 427 kts | 47° |
| 2026-05-06 01:45 | 41.15621 | -72.99895 | 22974 ft | 426 kts | 47° |
| 2026-05-06 01:46 | 41.17556 | -72.96994 | 22916 ft | 425 kts | 47° |
| 2026-05-06 01:46 | 41.19514 | -72.94048 | 22929 ft | 425 kts | 47° |
| 2026-05-06 01:46 | 41.21296 | -72.90936 | 22931 ft | 423 kts | 57° |
| 2026-05-06 01:46 | 41.22688 | -72.87510 | 22937 ft | 422 kts | 63° |
| 2026-05-06 01:47 | 41.24012 | -72.84032 | 22930 ft | 421 kts | 63° |
| 2026-05-06 01:47 | 41.25342 | -72.80565 | 22934 ft | 422 kts | 63° |
| 2026-05-06 01:47 | 41.26678 | -72.77084 | 22934 ft | 422 kts | 63° |
| 2026-05-06 01:47 | 41.28009 | -72.73613 | 22931 ft | 422 kts | 63° |
| 2026-05-06 01:48 | 41.29339 | -72.70137 | 22930 ft | 422 kts | 63° |
| 2026-05-06 01:48 | 41.30667 | -72.66660 | 22954 ft | 422 kts | 63° |
| 2026-05-06 01:48 | 41.31996 | -72.63170 | 22959 ft | 423 kts | 63° |
| 2026-05-06 01:48 | 41.33324 | -72.59679 | 22953 ft | 423 kts | 63° |
| 2026-05-06 01:49 | 41.34650 | -72.56196 | 22963 ft | 421 kts | 62° |
| 2026-05-06 01:49 | 41.35971 | -72.52718 | 22958 ft | 420 kts | 62° |
| 2026-05-06 01:49 | 41.37218 | -72.49434 | 22960 ft | 420 kts | 63° |
| 2026-05-06 01:49 | 41.38530 | -72.45961 | 22964 ft | 420 kts | 63° |
| 2026-05-06 01:50 | 41.39837 | -72.42495 | 22937 ft | 420 kts | 63° |
| 2026-05-06 01:50 | 41.41150 | -72.39016 | 22605 ft | 419 kts | 63° |
| 2026-05-06 01:50 | 41.42451 | -72.35559 | 22209 ft | 416 kts | 63° |
| 2026-05-06 01:50 | 41.43747 | -72.32118 | 21806 ft | 415 kts | 63° |
| 2026-05-06 01:51 | 41.45036 | -72.28689 | 21462 ft | 413 kts | 63° |
| 2026-05-06 01:51 | 41.46320 | -72.25271 | 21145 ft | 412 kts | 63° |
| 2026-05-06 01:51 | 41.47599 | -72.21858 | 20837 ft | 410 kts | 63° |
| 2026-05-06 01:51 | 41.48864 | -72.18466 | 20528 ft | 408 kts | 63° |
| 2026-05-06 01:52 | 41.50095 | -72.15124 | 20231 ft | 406 kts | 63° |
| 2026-05-06 01:52 | 41.51329 | -72.11742 | 19943 ft | 405 kts | 63° |
| 2026-05-06 01:52 | 41.52556 | -72.08366 | 19656 ft | 404 kts | 64° |
| 2026-05-06 01:52 | 41.53779 | -72.04995 | 19371 ft | 403 kts | 64° |
| 2026-05-06 01:53 | 41.54999 | -72.01641 | 19083 ft | 401 kts | 64° |
| 2026-05-06 01:53 | 41.56194 | -71.98273 | 18802 ft | 400 kts | 66° |
| 2026-05-06 01:53 | 41.57289 | -71.94863 | 18525 ft | 399 kts | 68° |
| 2026-05-06 01:53 | 41.58311 | -71.91423 | 18256 ft | 398 kts | 69° |
| 2026-05-06 01:54 | 41.59299 | -71.87970 | 17928 ft | 397 kts | 70° |
| 2026-05-06 01:54 | 41.60275 | -71.84537 | 17613 ft | 394 kts | 70° |
| 2026-05-06 01:54 | 41.61252 | -71.81123 | 17294 ft | 392 kts | 69° |
| 2026-05-06 01:54 | 41.62233 | -71.77738 | 16977 ft | 390 kts | 69° |
| 2026-05-06 01:55 | 41.63222 | -71.74368 | 16668 ft | 388 kts | 69° |
| 2026-05-06 01:55 | 41.64208 | -71.71027 | 16373 ft | 386 kts | 69° |
| 2026-05-06 01:55 | 41.65192 | -71.67697 | 16071 ft | 384 kts | 69° |
| 2026-05-06 01:55 | 41.66170 | -71.64381 | 15767 ft | 382 kts | 69° |
| 2026-05-06 01:56 | 41.67138 | -71.61091 | 15477 ft | 376 kts | 69° |
| 2026-05-06 01:56 | 41.68086 | -71.57865 | 15192 ft | 369 kts | 69° |
| 2026-05-06 01:56 | 41.69016 | -71.54697 | 14886 ft | 363 kts | 69° |
| 2026-05-06 01:56 | 41.69928 | -71.51579 | 14603 ft | 357 kts | 69° |
| 2026-05-06 01:57 | 41.70829 | -71.48492 | 14313 ft | 354 kts | 69° |
| 2026-05-06 01:57 | 41.71723 | -71.45427 | 14037 ft | 353 kts | 69° |
| 2026-05-06 01:57 | 41.72698 | -71.42430 | 13754 ft | 351 kts | 61° |
| 2026-05-06 01:57 | 41.73905 | -71.39594 | 13447 ft | 349 kts | 59° |
| 2026-05-06 01:58 | 41.75110 | -71.36784 | 13136 ft | 348 kts | 59° |
| 2026-05-06 01:58 | 41.76309 | -71.33980 | 12812 ft | 346 kts | 60° |
| 2026-05-06 01:58 | 41.77500 | -71.31191 | 12505 ft | 344 kts | 59° |
| 2026-05-06 01:58 | 41.78685 | -71.28417 | 12194 ft | 343 kts | 60° |
| 2026-05-06 01:59 | 41.79867 | -71.25648 | 11887 ft | 341 kts | 60° |
| 2026-05-06 01:59 | 41.81040 | -71.22900 | 11581 ft | 338 kts | 60° |
| 2026-05-06 01:59 | 41.82200 | -71.20179 | 11298 ft | 333 kts | 60° |
| 2026-05-06 01:59 | 41.83338 | -71.17503 | 11050 ft | 327 kts | 60° |
| 2026-05-06 02:00 | 41.84455 | -71.14869 | 10943 ft | 324 kts | 60° |
| 2026-05-06 02:00 | 41.85569 | -71.12242 | 10840 ft | 325 kts | 60° |
| 2026-05-06 02:00 | 41.86694 | -71.09612 | 10722 ft | 325 kts | 60° |
| 2026-05-06 02:00 | 41.87830 | -71.06991 | 10592 ft | 325 kts | 60° |
| 2026-05-06 02:01 | 41.88971 | -71.04365 | 10477 ft | 325 kts | 60° |
| 2026-05-06 02:01 | 41.90105 | -71.01750 | 10361 ft | 324 kts | 60° |
| 2026-05-06 02:01 | 41.91236 | -70.99129 | 10233 ft | 324 kts | 60° |
| 2026-05-06 02:01 | 41.92361 | -70.96516 | 10125 ft | 324 kts | 60° |
| 2026-05-06 02:02 | 41.93486 | -70.93901 | 10004 ft | 323 kts | 60° |
| 2026-05-06 02:02 | 41.94610 | -70.91286 | 9881 ft | 323 kts | 60° |
| 2026-05-06 02:02 | 41.95731 | -70.88680 | 9763 ft | 322 kts | 60° |
| 2026-05-06 02:02 | 41.96850 | -70.86075 | 9614 ft | 321 kts | 60° |
| 2026-05-06 02:03 | 41.97945 | -70.83522 | 9483 ft | 320 kts | 60° |
| 2026-05-06 02:03 | 41.99054 | -70.80927 | 9355 ft | 320 kts | 60° |
| 2026-05-06 02:03 | 42.00161 | -70.78336 | 9240 ft | 319 kts | 60° |
| 2026-05-06 02:03 | 42.01365 | -70.75831 | 9077 ft | 319 kts | 50° |
| 2026-05-06 02:04 | 42.02834 | -70.73607 | 8947 ft | 319 kts | 46° |
| 2026-05-06 02:04 | 42.04321 | -70.71392 | 8819 ft | 318 kts | 46° |
| 2026-05-06 02:04 | 42.05802 | -70.69177 | 8689 ft | 318 kts | 46° |
| 2026-05-06 02:04 | 42.07280 | -70.66960 | 8536 ft | 317 kts | 46° |
| 2026-05-06 02:05 | 42.08750 | -70.64753 | 8386 ft | 317 kts | 46° |
| 2026-05-06 02:05 | 42.10365 | -70.62761 | 8237 ft | 313 kts | 31° |
| 2026-05-06 02:05 | 42.12259 | -70.61385 | 8081 ft | 308 kts | 16° |
| 2026-05-06 02:05 | 42.14305 | -70.60644 | 7932 ft | 303 kts | 6° |
| 2026-05-06 02:06 | 42.16373 | -70.60080 | 7686 ft | 303 kts | 6° |
| 2026-05-06 02:06 | 42.18431 | -70.59510 | 7364 ft | 301 kts | 6° |
| 2026-05-06 02:06 | 42.20475 | -70.58935 | 7016 ft | 299 kts | 6° |
| 2026-05-06 02:06 | 42.22510 | -70.58362 | 6698 ft | 298 kts | 6° |
| 2026-05-06 02:07 | 42.24524 | -70.57799 | 6377 ft | 296 kts | 5° |
| 2026-05-06 02:07 | 42.26540 | -70.57234 | 6061 ft | 294 kts | 5° |
| 2026-05-06 02:07 | 42.28538 | -70.56677 | 5732 ft | 293 kts | 5° |
| 2026-05-06 02:07 | 42.30534 | -70.56300 | 5408 ft | 285 kts | 352° |
| 2026-05-06 02:08 | 42.32442 | -70.56675 | 5099 ft | 271 kts | 334° |
| 2026-05-06 02:08 | 42.34107 | -70.57740 | 4998 ft | 261 kts | 318° |
| 2026-05-06 02:08 | 42.35471 | -70.59313 | 5009 ft | 257 kts | 308° |
| 2026-05-06 02:08 | 42.36750 | -70.61000 | 5006 ft | 257 kts | 308° |
| 2026-05-06 02:09 | 42.38029 | -70.62682 | 4998 ft | 257 kts | 308° |
| 2026-05-06 02:09 | 42.39309 | -70.64361 | 5000 ft | 256 kts | 308° |
| 2026-05-06 02:09 | 42.40586 | -70.66039 | 5001 ft | 256 kts | 308° |
| 2026-05-06 02:09 | 42.41863 | -70.67719 | 4998 ft | 256 kts | 308° |
| 2026-05-06 02:10 | 42.43137 | -70.69399 | 5000 ft | 256 kts | 308° |
| 2026-05-06 02:10 | 42.44411 | -70.71082 | 5002 ft | 256 kts | 308° |
| 2026-05-06 02:10 | 42.45687 | -70.72765 | 4994 ft | 257 kts | 308° |
| 2026-05-06 02:10 | 42.46967 | -70.74454 | 4992 ft | 257 kts | 308° |
| 2026-05-06 02:11 | 42.48247 | -70.76146 | 4833 ft | 257 kts | 308° |
| 2026-05-06 02:11 | 42.49522 | -70.77829 | 4577 ft | 256 kts | 308° |
| 2026-05-06 02:11 | 42.50787 | -70.79494 | 4312 ft | 252 kts | 308° |
| 2026-05-06 02:11 | 42.52042 | -70.81146 | 3976 ft | 250 kts | 307° |
| 2026-05-06 02:12 | 42.53259 | -70.82746 | 3626 ft | 237 kts | 307° |
| 2026-05-06 02:12 | 42.54408 | -70.84252 | 3283 ft | 223 kts | 306° |
| 2026-05-06 02:12 | 42.55483 | -70.85669 | 3057 ft | 209 kts | 303° |
| 2026-05-06 02:12 | 42.56190 | -70.87179 | 3013 ft | 180 kts | 278° |
| 2026-05-06 02:13 | 42.56302 | -70.88780 | 3020 ft | 166 kts | 257° |
| 2026-05-06 02:13 | 42.55934 | -70.90200 | 3029 ft | 161 kts | 238° |
| 2026-05-06 02:13 | 42.55171 | -70.91310 | 3024 ft | 164 kts | 218° |
| 2026-05-06 02:13 | 42.54127 | -70.91947 | 3017 ft | 163 kts | 206° |
| 2026-05-06 02:14 | 42.53069 | -70.92461 | 3021 ft | 166 kts | 207° |
| 2026-05-06 02:14 | 42.51969 | -70.92997 | 2966 ft | 169 kts | 207° |
| 2026-05-06 02:14 | 42.50868 | -70.93532 | 2774 ft | 168 kts | 207° |
| 2026-05-06 02:14 | 42.49778 | -70.94060 | 2571 ft | 161 kts | 207° |
| 2026-05-06 02:15 | 42.48766 | -70.94550 | 2383 ft | 151 kts | 208° |
| 2026-05-06 02:15 | 42.47791 | -70.95024 | 2185 ft | 147 kts | 208° |
| 2026-05-06 02:15 | 42.46836 | -70.95489 | 1999 ft | 145 kts | 207° |
| 2026-05-06 02:15 | 42.45890 | -70.95950 | 1811 ft | 144 kts | 206° |
| 2026-05-06 02:16 | 42.44969 | -70.96395 | 1625 ft | 134 kts | 206° |
| 2026-05-06 02:16 | 42.44105 | -70.96815 | 1450 ft | 131 kts | 207° |
| 2026-05-06 02:16 | 42.43271 | -70.97220 | 1272 ft | 128 kts | 205° |
| 2026-05-06 02:16 | 42.42420 | -70.97635 | 1098 ft | 130 kts | 204° |
| 2026-05-06 02:17 | 42.41601 | -70.98031 | 929 ft | 122 kts | 204° |
| 2026-05-06 02:17 | 42.40803 | -70.98418 | 769 ft | 124 kts | 202° |
| 2026-05-06 02:17 | 42.39977 | -70.98827 | 643 ft | 127 kts | 201° |
| 2026-05-06 02:17 | 42.39144 | -70.99239 | 473 ft | 129 kts | 201° |
| 2026-05-06 02:18 | 42.38295 | -70.99640 | 279 ft | 130 kts | 201° |
| 2026-05-06 02:18 | 42.37448 | -71.00053 | 94 ft | 128 kts | 201° |
| 2026-05-06 02:18 | 42.36651 | -71.00433 | 27 ft | 108 kts | 200° |
| 2026-05-06 02:18 | 42.36083 | -71.00712 | 27 ft | 62 kts | 199° |
| 2026-05-06 02:19 | 42.35802 | -71.00846 | 25 ft | 34 kts | 200° |
| 2026-05-06 02:19 | 42.35600 | -71.00950 | 27 ft | 29 kts | 201° |
| 2026-05-06 02:19 | 42.35437 | -71.01035 | 25 ft | 13 kts | 201° |
| 2026-05-06 02:19 | 42.35389 | -71.01091 | 26 ft | 9 kts | 259° |
| 2026-05-06 02:20 | 42.35428 | -71.01280 | 26 ft | 12 kts | 290° |
| 2026-05-06 02:20 | 42.35458 | -71.01357 | 26 ft | 7 kts | 327° |
| 2026-05-06 02:20 | 42.35512 | -71.01352 | 30 ft | 9 kts | 17° |
| 2026-05-06 02:21 | 42.35583 | -71.01322 | 27 ft | 12 kts | 13° |
| 2026-05-06 02:21 | 42.35669 | -71.01302 | 25 ft | 13 kts | 16° |
| 2026-05-06 02:21 | 42.35732 | -71.01303 | 29 ft | 9 kts | 321° |
| 2026-05-06 02:21 | 42.35761 | -71.01383 | 27 ft | 10 kts | 290° |
| 2026-05-06 02:22 | 42.35788 | -71.01481 | 29 ft | 12 kts | 289° |
| 2026-05-06 02:22 | 42.35815 | -71.01588 | 26 ft | 9 kts | 286° |
| 2026-05-06 02:22 | 42.35837 | -71.01652 | 27 ft | 7 kts | 330° |
| 2026-05-06 02:22 | 42.35886 | -71.01647 | 25 ft | 8 kts | 17° |
| 2026-05-06 02:23 | 42.35950 | -71.01619 | 28 ft | 12 kts | 19° |
| 2026-05-06 02:23 | 42.36041 | -71.01575 | 25 ft | 16 kts | 19° |
| 2026-05-06 02:23 | 42.36149 | -71.01523 | 26 ft | 17 kts | 19° |
| 2026-05-06 02:23 | 42.36265 | -71.01468 | 28 ft | 18 kts | 19° |
| 2026-05-06 02:24 | 42.36359 | -71.01422 | 26 ft | 7 kts | 17° |
| 2026-05-06 02:24 | 42.36384 | -71.01452 | 26 ft | 6 kts | 302° |
| 2026-05-06 02:24 | 42.36408 | -71.01503 | 29 ft | 7 kts | 302° |
| 2026-05-06 02:24 | 42.36434 | -71.01561 | 28 ft | 3 kts | 302° |
| 2026-05-06 02:25 | 42.36437 | -71.01586 | 28 ft | 2 kts | 239° |
| 2026-05-06 02:25 | 42.36418 | -71.01605 | 28 ft | 4 kts | 216° |
| 2026-05-06 02:25 | 42.36402 | -71.01620 | 29 ft | 2 kts | 213° |
| 2026-05-06 02:25 | 42.36398 | -71.01623 | 29 ft | 0 kts | 214° |